sensor_id;sensor_type;location;lat;lon;timestamp;P1;durP1;ratioP1;P2;durP2;ratioP2
4758;SDS011;2393;50.560;12.636;2023-02-28T00:00:25;3.00;;;2.90;;
4758;SDS011;2393;50.560;12.636;2023-02-28T00:02:53;7.93;;;3.63;;
4758;SDS011;2393;50.560;12.636;2023-02-28T00:05:22;2.60;;;2.38;;
4758;SDS011;2393;50.560;12.636;2023-02-28T00:07:51;2.50;;;2.33;;
4758;SDS011;2393;50.560;12.636;2023-02-28T00:10:20;3.55;;;3.25;;
4758;SDS011;2393;50.560;12.636;2023-02-28T00:12:50;2.03;;;1.92;;
4758;SDS011;2393;50.560;12.636;2023-02-28T00:15:22;6.78;;;2.53;;
4758;SDS011;2393;50.560;12.636;2023-02-28T00:17:50;4.82;;;3.35;;
4758;SDS011;2393;50.560;12.636;2023-02-28T00:20:19;3.38;;;2.97;;
4758;SDS011;2393;50.560;12.636;2023-02-28T00:22:48;4.25;;;2.97;;
4758;SDS011;2393;50.560;12.636;2023-02-28T00:25:19;12.48;;;2.72;;
4758;SDS011;2393;50.560;12.636;2023-02-28T00:27:48;4.10;;;2.88;;
4758;SDS011;2393;50.560;12.636;2023-02-28T00:30:17;1.90;;;1.80;;
4758;SDS011;2393;50.560;12.636;2023-02-28T00:32:48;4.35;;;2.83;;
4758;SDS011;2393;50.560;12.636;2023-02-28T00:35:17;3.10;;;2.75;;
4758;SDS011;2393;50.560;12.636;2023-02-28T00:37:45;4.88;;;2.72;;
4758;SDS011;2393;50.560;12.636;2023-02-28T00:40:15;3.85;;;3.55;;
4758;SDS011;2393;50.560;12.636;2023-02-28T00:45:40;3.45;;;3.15;;
4758;SDS011;2393;50.560;12.636;2023-02-28T00:48:09;3.28;;;3.08;;
4758;SDS011;2393;50.560;12.636;2023-02-28T00:50:38;5.97;;;3.17;;
4758;SDS011;2393;50.560;12.636;2023-02-28T00:53:06;3.10;;;2.60;;
4758;SDS011;2393;50.560;12.636;2023-02-28T00:55:34;3.65;;;2.97;;
4758;SDS011;2393;50.560;12.636;2023-02-28T00:58:03;2.85;;;2.65;;
4758;SDS011;2393;50.560;12.636;2023-02-28T01:00:31;4.10;;;3.08;;
4758;SDS011;2393;50.560;12.636;2023-02-28T01:02:59;3.05;;;2.85;;
4758;SDS011;2393;50.560;12.636;2023-02-28T01:05:28;1.95;;;1.85;;
4758;SDS011;2393;50.560;12.636;2023-02-28T01:07:56;3.45;;;3.15;;
4758;SDS011;2393;50.560;12.636;2023-02-28T01:10:25;3.47;;;3.17;;
4758;SDS011;2393;50.560;12.636;2023-02-28T01:12:57;2.47;;;2.35;;
4758;SDS011;2393;50.560;12.636;2023-02-28T01:15:25;5.38;;;2.35;;
4758;SDS011;2393;50.560;12.636;2023-02-28T01:17:53;3.20;;;3.00;;
4758;SDS011;2393;50.560;12.636;2023-02-28T01:20:21;3.65;;;2.80;;
4758;SDS011;2393;50.560;12.636;2023-02-28T01:22:51;1.98;;;1.50;;
4758;SDS011;2393;50.560;12.636;2023-02-28T01:25:19;3.25;;;2.38;;
4758;SDS011;2393;50.560;12.636;2023-02-28T01:27:47;2.42;;;2.30;;
4758;SDS011;2393;50.560;12.636;2023-02-28T01:30:15;2.25;;;2.15;;
4758;SDS011;2393;50.560;12.636;2023-02-28T01:32:46;3.08;;;2.80;;
4758;SDS011;2393;50.560;12.636;2023-02-28T01:35:14;3.03;;;2.65;;
4758;SDS011;2393;50.560;12.636;2023-02-28T01:37:43;3.70;;;2.97;;
4758;SDS011;2393;50.560;12.636;2023-02-28T01:40:13;2.80;;;2.58;;
4758;SDS011;2393;50.560;12.636;2023-02-28T01:42:41;2.45;;;1.95;;
4758;SDS011;2393;50.560;12.636;2023-02-28T01:45:20;4.22;;;3.15;;
4758;SDS011;2393;50.560;12.636;2023-02-28T01:47:51;2.60;;;2.40;;
4758;SDS011;2393;50.560;12.636;2023-02-28T01:50:24;3.05;;;2.63;;
4758;SDS011;2393;50.560;12.636;2023-02-28T01:52:58;2.67;;;2.47;;
4758;SDS011;2393;50.560;12.636;2023-02-28T01:55:31;4.78;;;2.40;;
4758;SDS011;2393;50.560;12.636;2023-02-28T01:58:01;2.35;;;1.90;;
4758;SDS011;2393;50.560;12.636;2023-02-28T02:00:31;3.60;;;2.80;;
4758;SDS011;2393;50.560;12.636;2023-02-28T02:03:01;3.10;;;2.45;;
4758;SDS011;2393;50.560;12.636;2023-02-28T02:05:35;2.85;;;2.65;;
4758;SDS011;2393;50.560;12.636;2023-02-28T02:08:06;2.53;;;2.33;;
4758;SDS011;2393;50.560;12.636;2023-02-28T02:10:40;2.30;;;2.20;;
4758;SDS011;2393;50.560;12.636;2023-02-28T02:13:14;2.90;;;2.65;;
4758;SDS011;2393;50.560;12.636;2023-02-28T02:16:02;3.20;;;2.90;;
4758;SDS011;2393;50.560;12.636;2023-02-28T02:18:43;5.95;;;2.60;;
4758;SDS011;2393;50.560;12.636;2023-02-28T02:21:17;2.92;;;2.72;;
4758;SDS011;2393;50.560;12.636;2023-02-28T02:27:19;3.60;;;2.42;;
4758;SDS011;2393;50.560;12.636;2023-02-28T02:33:10;3.20;;;2.92;;
4758;SDS011;2393;50.560;12.636;2023-02-28T02:36:00;2.78;;;2.58;;
4758;SDS011;2393;50.560;12.636;2023-02-28T02:38:34;3.33;;;2.35;;
4758;SDS011;2393;50.560;12.636;2023-02-28T02:41:08;3.05;;;2.85;;
4758;SDS011;2393;50.560;12.636;2023-02-28T02:43:43;1.90;;;1.73;;
4758;SDS011;2393;50.560;12.636;2023-02-28T02:46:19;2.25;;;2.15;;
4758;SDS011;2393;50.560;12.636;2023-02-28T02:48:48;2.58;;;2.40;;
4758;SDS011;2393;50.560;12.636;2023-02-28T02:51:20;2.65;;;2.42;;
4758;SDS011;2393;50.560;12.636;2023-02-28T02:53:51;2.25;;;2.15;;
4758;SDS011;2393;50.560;12.636;2023-02-28T02:56:24;2.50;;;2.40;;
4758;SDS011;2393;50.560;12.636;2023-02-28T03:03:04;3.10;;;2.50;;
4758;SDS011;2393;50.560;12.636;2023-02-28T03:05:35;2.35;;;2.17;;
4758;SDS011;2393;50.560;12.636;2023-02-28T03:08:11;2.10;;;2.03;;
4758;SDS011;2393;50.560;12.636;2023-02-28T03:10:39;3.25;;;2.85;;
4758;SDS011;2393;50.560;12.636;2023-02-28T03:13:15;6.93;;;2.45;;
4758;SDS011;2393;50.560;12.636;2023-02-28T03:16:02;3.08;;;2.60;;
4758;SDS011;2393;50.560;12.636;2023-02-28T03:18:47;4.22;;;2.88;;
4758;SDS011;2393;50.560;12.636;2023-02-28T03:21:23;2.80;;;2.60;;
4758;SDS011;2393;50.560;12.636;2023-02-28T03:24:03;3.28;;;2.45;;
4758;SDS011;2393;50.560;12.636;2023-02-28T03:26:36;2.15;;;1.90;;
4758;SDS011;2393;50.560;12.636;2023-02-28T03:29:10;6.57;;;2.67;;
4758;SDS011;2393;50.560;12.636;2023-02-28T03:31:44;2.42;;;2.33;;
4758;SDS011;2393;50.560;12.636;2023-02-28T03:34:19;8.35;;;3.67;;
4758;SDS011;2393;50.560;12.636;2023-02-28T03:36:53;2.10;;;2.00;;
4758;SDS011;2393;50.560;12.636;2023-02-28T03:39:27;2.20;;;2.10;;
4758;SDS011;2393;50.560;12.636;2023-02-28T03:42:01;2.60;;;2.40;;
4758;SDS011;2393;50.560;12.636;2023-02-28T03:44:34;2.30;;;2.15;;
4758;SDS011;2393;50.560;12.636;2023-02-28T03:47:07;7.03;;;1.60;;
4758;SDS011;2393;50.560;12.636;2023-02-28T03:49:39;4.90;;;2.25;;
4758;SDS011;2393;50.560;12.636;2023-02-28T03:52:15;3.30;;;1.70;;
4758;SDS011;2393;50.560;12.636;2023-02-28T03:54:48;2.85;;;2.40;;
4758;SDS011;2393;50.560;12.636;2023-02-28T03:57:22;3.42;;;2.60;;
4758;SDS011;2393;50.560;12.636;2023-02-28T03:59:56;2.85;;;2.35;;
4758;SDS011;2393;50.560;12.636;2023-02-28T04:02:27;3.13;;;1.92;;
4758;SDS011;2393;50.560;12.636;2023-02-28T04:04:55;2.28;;;2.08;;
4758;SDS011;2393;50.560;12.636;2023-02-28T04:07:23;2.35;;;2.20;;
4758;SDS011;2393;50.560;12.636;2023-02-28T04:09:53;5.10;;;2.55;;
4758;SDS011;2393;50.560;12.636;2023-02-28T04:12:21;3.45;;;1.95;;
4758;SDS011;2393;50.560;12.636;2023-02-28T04:14:49;3.33;;;2.53;;
4758;SDS011;2393;50.560;12.636;2023-02-28T04:17:17;3.00;;;2.78;;
4758;SDS011;2393;50.560;12.636;2023-02-28T04:19:45;1.92;;;1.83;;
4758;SDS011;2393;50.560;12.636;2023-02-28T04:22:13;2.08;;;1.98;;
4758;SDS011;2393;50.560;12.636;2023-02-28T04:24:43;3.10;;;2.80;;
4758;SDS011;2393;50.560;12.636;2023-02-28T04:27:13;2.65;;;2.45;;
4758;SDS011;2393;50.560;12.636;2023-02-28T04:29:42;5.05;;;4.78;;
4758;SDS011;2393;50.560;12.636;2023-02-28T04:35:30;7.00;;;6.28;;
4758;SDS011;2393;50.560;12.636;2023-02-28T04:37:58;3.75;;;3.38;;
4758;SDS011;2393;50.560;12.636;2023-02-28T04:40:26;3.25;;;3.03;;
4758;SDS011;2393;50.560;12.636;2023-02-28T04:42:55;7.85;;;4.05;;
4758;SDS011;2393;50.560;12.636;2023-02-28T04:45:23;6.38;;;3.80;;
4758;SDS011;2393;50.560;12.636;2023-02-28T04:47:51;2.63;;;2.45;;
4758;SDS011;2393;50.560;12.636;2023-02-28T04:50:20;2.45;;;2.25;;
4758;SDS011;2393;50.560;12.636;2023-02-28T04:52:48;3.13;;;2.28;;
4758;SDS011;2393;50.560;12.636;2023-02-28T04:55:16;5.68;;;2.75;;
4758;SDS011;2393;50.560;12.636;2023-02-28T04:57:44;2.38;;;2.28;;
4758;SDS011;2393;50.560;12.636;2023-02-28T05:00:13;2.65;;;2.45;;
4758;SDS011;2393;50.560;12.636;2023-02-28T05:02:43;3.03;;;2.70;;
4758;SDS011;2393;50.560;12.636;2023-02-28T05:05:11;3.47;;;2.20;;
4758;SDS011;2393;50.560;12.636;2023-02-28T05:07:44;4.18;;;2.15;;
4758;SDS011;2393;50.560;12.636;2023-02-28T05:10:12;2.55;;;2.35;;
4758;SDS011;2393;50.560;12.636;2023-02-28T05:12:40;2.10;;;2.00;;
4758;SDS011;2393;50.560;12.636;2023-02-28T05:15:11;2.58;;;2.47;;
4758;SDS011;2393;50.560;12.636;2023-02-28T05:17:42;3.17;;;2.78;;
4758;SDS011;2393;50.560;12.636;2023-02-28T05:20:10;2.55;;;2.35;;
4758;SDS011;2393;50.560;12.636;2023-02-28T05:22:42;2.70;;;1.77;;
4758;SDS011;2393;50.560;12.636;2023-02-28T05:25:11;3.13;;;2.50;;
4758;SDS011;2393;50.560;12.636;2023-02-28T05:27:42;2.28;;;1.92;;
4758;SDS011;2393;50.560;12.636;2023-02-28T05:30:11;5.97;;;2.33;;
4758;SDS011;2393;50.560;12.636;2023-02-28T05:32:40;1.85;;;1.75;;
4758;SDS011;2393;50.560;12.636;2023-02-28T05:35:10;2.05;;;1.95;;
4758;SDS011;2393;50.560;12.636;2023-02-28T05:37:38;7.15;;;2.45;;
4758;SDS011;2393;50.560;12.636;2023-02-28T05:40:07;2.72;;;2.20;;
4758;SDS011;2393;50.560;12.636;2023-02-28T05:42:36;4.18;;;2.70;;
4758;SDS011;2393;50.560;12.636;2023-02-28T05:45:05;2.60;;;2.40;;
4758;SDS011;2393;50.560;12.636;2023-02-28T05:50:55;2.88;;;2.63;;
4758;SDS011;2393;50.560;12.636;2023-02-28T05:53:24;3.22;;;2.97;;
4758;SDS011;2393;50.560;12.636;2023-02-28T05:55:53;3.60;;;3.20;;
4758;SDS011;2393;50.560;12.636;2023-02-28T05:58:21;1.83;;;1.73;;
4758;SDS011;2393;50.560;12.636;2023-02-28T06:00:49;3.17;;;2.97;;
4758;SDS011;2393;50.560;12.636;2023-02-28T06:03:17;3.95;;;3.63;;
4758;SDS011;2393;50.560;12.636;2023-02-28T06:05:45;4.15;;;3.45;;
4758;SDS011;2393;50.560;12.636;2023-02-28T06:08:14;3.42;;;3.15;;
4758;SDS011;2393;50.560;12.636;2023-02-28T06:10:42;10.93;;;3.35;;
4758;SDS011;2393;50.560;12.636;2023-02-28T06:13:11;5.32;;;3.42;;
4758;SDS011;2393;50.560;12.636;2023-02-28T06:15:39;4.45;;;3.53;;
4758;SDS011;2393;50.560;12.636;2023-02-28T06:18:07;3.40;;;3.10;;
4758;SDS011;2393;50.560;12.636;2023-02-28T06:20:35;5.47;;;4.00;;
4758;SDS011;2393;50.560;12.636;2023-02-28T06:23:03;14.73;;;4.00;;
4758;SDS011;2393;50.560;12.636;2023-02-28T06:25:32;6.57;;;3.92;;
4758;SDS011;2393;50.560;12.636;2023-02-28T06:32:02;8.52;;;4.30;;
4758;SDS011;2393;50.560;12.636;2023-02-28T06:34:30;6.22;;;4.53;;
4758;SDS011;2393;50.560;12.636;2023-02-28T06:37:00;6.10;;;3.97;;
4758;SDS011;2393;50.560;12.636;2023-02-28T06:39:28;7.28;;;3.78;;
4758;SDS011;2393;50.560;12.636;2023-02-28T06:41:57;3.92;;;3.55;;
4758;SDS011;2393;50.560;12.636;2023-02-28T06:44:25;9.55;;;4.10;;
4758;SDS011;2393;50.560;12.636;2023-02-28T06:47:01;6.03;;;4.25;;
4758;SDS011;2393;50.560;12.636;2023-02-28T06:49:31;6.65;;;4.05;;
4758;SDS011;2393;50.560;12.636;2023-02-28T06:51:59;4.43;;;3.50;;
4758;SDS011;2393;50.560;12.636;2023-02-28T06:54:27;6.68;;;3.55;;
4758;SDS011;2393;50.560;12.636;2023-02-28T06:56:58;4.93;;;3.25;;
4758;SDS011;2393;50.560;12.636;2023-02-28T06:59:26;7.78;;;3.63;;
4758;SDS011;2393;50.560;12.636;2023-02-28T07:05:24;4.53;;;3.22;;
4758;SDS011;2393;50.560;12.636;2023-02-28T07:07:55;5.88;;;3.47;;
4758;SDS011;2393;50.560;12.636;2023-02-28T07:10:23;5.28;;;4.07;;
4758;SDS011;2393;50.560;12.636;2023-02-28T07:12:52;6.63;;;3.55;;
4758;SDS011;2393;50.560;12.636;2023-02-28T07:15:20;5.40;;;3.65;;
4758;SDS011;2393;50.560;12.636;2023-02-28T07:17:48;4.63;;;3.50;;
4758;SDS011;2393;50.560;12.636;2023-02-28T07:20:16;7.88;;;4.55;;
4758;SDS011;2393;50.560;12.636;2023-02-28T07:22:44;9.32;;;4.80;;
4758;SDS011;2393;50.560;12.636;2023-02-28T07:25:14;4.75;;;3.28;;
4758;SDS011;2393;50.560;12.636;2023-02-28T07:27:45;6.93;;;4.80;;
4758;SDS011;2393;50.560;12.636;2023-02-28T07:30:15;8.27;;;4.30;;
4758;SDS011;2393;50.560;12.636;2023-02-28T07:37:16;5.22;;;4.70;;
4758;SDS011;2393;50.560;12.636;2023-02-28T07:39:44;6.03;;;4.20;;
4758;SDS011;2393;50.560;12.636;2023-02-28T07:42:12;5.30;;;4.10;;
4758;SDS011;2393;50.560;12.636;2023-02-28T07:44:40;5.67;;;4.17;;
4758;SDS011;2393;50.560;12.636;2023-02-28T07:47:10;6.63;;;4.00;;
4758;SDS011;2393;50.560;12.636;2023-02-28T07:49:38;5.37;;;4.87;;
4758;SDS011;2393;50.560;12.636;2023-02-28T07:52:06;6.17;;;4.60;;
4758;SDS011;2393;50.560;12.636;2023-02-28T07:59:27;4.97;;;3.57;;
4758;SDS011;2393;50.560;12.636;2023-02-28T08:01:57;8.10;;;4.80;;
4758;SDS011;2393;50.560;12.636;2023-02-28T08:04:27;5.00;;;4.53;;
4758;SDS011;2393;50.560;12.636;2023-02-28T08:06:55;12.03;;;6.13;;
4758;SDS011;2393;50.560;12.636;2023-02-28T08:09:23;20.70;;;9.33;;
4758;SDS011;2393;50.560;12.636;2023-02-28T08:11:51;18.23;;;9.10;;
4758;SDS011;2393;50.560;12.636;2023-02-28T08:19:16;8.67;;;5.00;;
4758;SDS011;2393;50.560;12.636;2023-02-28T08:21:46;7.67;;;5.17;;
4758;SDS011;2393;50.560;12.636;2023-02-28T08:24:14;12.37;;;5.43;;
4758;SDS011;2393;50.560;12.636;2023-02-28T08:26:42;9.73;;;4.37;;
4758;SDS011;2393;50.560;12.636;2023-02-28T08:29:10;6.20;;;3.80;;
4758;SDS011;2393;50.560;12.636;2023-02-28T08:31:38;5.90;;;3.93;;
4758;SDS011;2393;50.560;12.636;2023-02-28T08:34:06;7.10;;;4.73;;
4758;SDS011;2393;50.560;12.636;2023-02-28T08:36:35;7.30;;;4.73;;
4758;SDS011;2393;50.560;12.636;2023-02-28T08:39:05;8.93;;;6.23;;
4758;SDS011;2393;50.560;12.636;2023-02-28T08:41:33;7.28;;;4.00;;
4758;SDS011;2393;50.560;12.636;2023-02-28T08:44:01;5.50;;;4.00;;
4758;SDS011;2393;50.560;12.636;2023-02-28T08:46:29;5.80;;;3.80;;
4758;SDS011;2393;50.560;12.636;2023-02-28T08:48:57;5.15;;;4.22;;
4758;SDS011;2393;50.560;12.636;2023-02-28T08:51:27;7.80;;;4.20;;
4758;SDS011;2393;50.560;12.636;2023-02-28T08:53:57;3.70;;;3.25;;
4758;SDS011;2393;50.560;12.636;2023-02-28T08:56:28;12.13;;;4.68;;
4758;SDS011;2393;50.560;12.636;2023-02-28T08:58:57;5.78;;;3.80;;
4758;SDS011;2393;50.560;12.636;2023-02-28T09:01:25;7.72;;;4.18;;
4758;SDS011;2393;50.560;12.636;2023-02-28T09:03:55;8.30;;;4.07;;
4758;SDS011;2393;50.560;12.636;2023-02-28T09:06:25;4.45;;;4.05;;
4758;SDS011;2393;50.560;12.636;2023-02-28T09:08:56;5.60;;;4.45;;
4758;SDS011;2393;50.560;12.636;2023-02-28T09:11:25;9.43;;;4.28;;
4758;SDS011;2393;50.560;12.636;2023-02-28T09:13:55;7.78;;;4.03;;
4758;SDS011;2393;50.560;12.636;2023-02-28T09:16:23;6.85;;;4.28;;
4758;SDS011;2393;50.560;12.636;2023-02-28T09:18:51;4.40;;;4.05;;
4758;SDS011;2393;50.560;12.636;2023-02-28T09:21:19;9.40;;;4.22;;
4758;SDS011;2393;50.560;12.636;2023-02-28T09:23:47;5.88;;;3.65;;
4758;SDS011;2393;50.560;12.636;2023-02-28T09:26:18;6.78;;;4.20;;
4758;SDS011;2393;50.560;12.636;2023-02-28T09:28:50;6.88;;;4.10;;
4758;SDS011;2393;50.560;12.636;2023-02-28T09:31:20;7.25;;;3.80;;
4758;SDS011;2393;50.560;12.636;2023-02-28T09:33:49;6.57;;;4.05;;
4758;SDS011;2393;50.560;12.636;2023-02-28T09:36:19;6.13;;;4.32;;
4758;SDS011;2393;50.560;12.636;2023-02-28T09:38:50;6.82;;;4.03;;
4758;SDS011;2393;50.560;12.636;2023-02-28T09:41:20;9.43;;;4.07;;
4758;SDS011;2393;50.560;12.636;2023-02-28T09:43:51;6.20;;;3.58;;
4758;SDS011;2393;50.560;12.636;2023-02-28T09:46:27;6.63;;;3.65;;
4758;SDS011;2393;50.560;12.636;2023-02-28T09:48:59;5.15;;;3.47;;
4758;SDS011;2393;50.560;12.636;2023-02-28T09:51:46;9.20;;;3.15;;
4758;SDS011;2393;50.560;12.636;2023-02-28T09:54:18;5.80;;;3.78;;
4758;SDS011;2393;50.560;12.636;2023-02-28T09:56:49;5.75;;;3.47;;
4758;SDS011;2393;50.560;12.636;2023-02-28T09:59:25;6.85;;;4.13;;
4758;SDS011;2393;50.560;12.636;2023-02-28T10:02:04;6.07;;;3.83;;
4758;SDS011;2393;50.560;12.636;2023-02-28T10:04:45;21.23;;;6.82;;
4758;SDS011;2393;50.560;12.636;2023-02-28T10:07:30;5.03;;;3.20;;
4758;SDS011;2393;50.560;12.636;2023-02-28T10:12:49;8.70;;;4.75;;
4758;SDS011;2393;50.560;12.636;2023-02-28T10:15:23;5.85;;;3.47;;
4758;SDS011;2393;50.560;12.636;2023-02-28T10:17:54;6.95;;;4.00;;
4758;SDS011;2393;50.560;12.636;2023-02-28T10:20:34;8.20;;;4.45;;
4758;SDS011;2393;50.560;12.636;2023-02-28T10:23:09;6.20;;;4.25;;
4758;SDS011;2393;50.560;12.636;2023-02-28T10:25:44;14.15;;;5.50;;
4758;SDS011;2393;50.560;12.636;2023-02-28T10:28:20;4.90;;;3.83;;
4758;SDS011;2393;50.560;12.636;2023-02-28T10:33:29;5.07;;;4.13;;
4758;SDS011;2393;50.560;12.636;2023-02-28T10:35:58;4.28;;;3.88;;
4758;SDS011;2393;50.560;12.636;2023-02-28T10:38:27;7.57;;;5.22;;
4758;SDS011;2393;50.560;12.636;2023-02-28T10:41:03;11.73;;;4.47;;
4758;SDS011;2393;50.560;12.636;2023-02-28T10:43:32;6.40;;;3.97;;
4758;SDS011;2393;50.560;12.636;2023-02-28T10:46:03;7.25;;;4.28;;
4758;SDS011;2393;50.560;12.636;2023-02-28T10:48:39;6.13;;;3.80;;
4758;SDS011;2393;50.560;12.636;2023-02-28T10:51:09;7.55;;;4.60;;
4758;SDS011;2393;50.560;12.636;2023-02-28T10:53:44;4.57;;;3.95;;
4758;SDS011;2393;50.560;12.636;2023-02-28T10:56:26;7.80;;;4.43;;
4758;SDS011;2393;50.560;12.636;2023-02-28T10:58:57;5.70;;;4.07;;
4758;SDS011;2393;50.560;12.636;2023-02-28T11:01:38;7.85;;;4.80;;
4758;SDS011;2393;50.560;12.636;2023-02-28T11:07:05;8.80;;;5.10;;
4758;SDS011;2393;50.560;12.636;2023-02-28T11:09:45;10.25;;;4.65;;
4758;SDS011;2393;50.560;12.636;2023-02-28T11:12:25;4.90;;;3.85;;
4758;SDS011;2393;50.560;12.636;2023-02-28T11:14:57;9.73;;;4.85;;
4758;SDS011;2393;50.560;12.636;2023-02-28T11:17:28;4.13;;;3.70;;
4758;SDS011;2393;50.560;12.636;2023-02-28T11:19:59;10.00;;;4.50;;
4758;SDS011;2393;50.560;12.636;2023-02-28T11:22:31;6.28;;;3.70;;
4758;SDS011;2393;50.560;12.636;2023-02-28T11:25:03;8.82;;;5.20;;
4758;SDS011;2393;50.560;12.636;2023-02-28T11:27:41;6.78;;;4.72;;
4758;SDS011;2393;50.560;12.636;2023-02-28T11:30:23;8.82;;;4.13;;
4758;SDS011;2393;50.560;12.636;2023-02-28T11:32:54;7.38;;;5.18;;
4758;SDS011;2393;50.560;12.636;2023-02-28T11:35:23;5.65;;;4.10;;
4758;SDS011;2393;50.560;12.636;2023-02-28T11:37:56;7.47;;;4.50;;
4758;SDS011;2393;50.560;12.636;2023-02-28T11:40:28;6.07;;;4.18;;
4758;SDS011;2393;50.560;12.636;2023-02-28T11:43:06;10.38;;;4.18;;
4758;SDS011;2393;50.560;12.636;2023-02-28T11:45:45;6.93;;;5.45;;
4758;SDS011;2393;50.560;12.636;2023-02-28T11:48:25;5.90;;;4.25;;
4758;SDS011;2393;50.560;12.636;2023-02-28T11:51:03;9.20;;;5.78;;
4758;SDS011;2393;50.560;12.636;2023-02-28T11:53:46;10.73;;;4.70;;
4758;SDS011;2393;50.560;12.636;2023-02-28T11:56:44;7.95;;;4.43;;
4758;SDS011;2393;50.560;12.636;2023-02-28T11:59:19;8.75;;;5.05;;
4758;SDS011;2393;50.560;12.636;2023-02-28T12:02:20;4.75;;;4.30;;
4758;SDS011;2393;50.560;12.636;2023-02-28T12:04:53;9.52;;;5.57;;
4758;SDS011;2393;50.560;12.636;2023-02-28T12:07:37;9.43;;;4.88;;
4758;SDS011;2393;50.560;12.636;2023-02-28T12:10:18;10.63;;;5.05;;
4758;SDS011;2393;50.560;12.636;2023-02-28T12:12:52;9.43;;;5.72;;
4758;SDS011;2393;50.560;12.636;2023-02-28T12:15:36;8.20;;;5.30;;
4758;SDS011;2393;50.560;12.636;2023-02-28T12:21:21;7.45;;;4.97;;
4758;SDS011;2393;50.560;12.636;2023-02-28T12:24:00;7.07;;;4.57;;
4758;SDS011;2393;50.560;12.636;2023-02-28T12:26:38;13.52;;;5.20;;
4758;SDS011;2393;50.560;12.636;2023-02-28T12:29:10;5.93;;;5.30;;
4758;SDS011;2393;50.560;12.636;2023-02-28T12:31:46;6.95;;;5.10;;
4758;SDS011;2393;50.560;12.636;2023-02-28T12:34:18;9.00;;;5.07;;
4758;SDS011;2393;50.560;12.636;2023-02-28T12:36:50;5.57;;;3.80;;
4758;SDS011;2393;50.560;12.636;2023-02-28T12:39:23;7.93;;;5.68;;
4758;SDS011;2393;50.560;12.636;2023-02-28T12:41:54;5.35;;;4.65;;
4758;SDS011;2393;50.560;12.636;2023-02-28T12:44:30;7.88;;;4.45;;
4758;SDS011;2393;50.560;12.636;2023-02-28T12:47:03;10.50;;;4.30;;
4758;SDS011;2393;50.560;12.636;2023-02-28T12:49:33;7.60;;;5.00;;
4758;SDS011;2393;50.560;12.636;2023-02-28T12:52:07;8.43;;;4.97;;
4758;SDS011;2393;50.560;12.636;2023-02-28T12:54:41;6.75;;;5.60;;
4758;SDS011;2393;50.560;12.636;2023-02-28T12:57:18;8.57;;;4.45;;
4758;SDS011;2393;50.560;12.636;2023-02-28T12:59:55;4.60;;;4.03;;
4758;SDS011;2393;50.560;12.636;2023-02-28T13:02:33;4.50;;;4.10;;
4758;SDS011;2393;50.560;12.636;2023-02-28T13:05:29;7.78;;;4.68;;
4758;SDS011;2393;50.560;12.636;2023-02-28T13:11:10;10.20;;;5.70;;
4758;SDS011;2393;50.560;12.636;2023-02-28T13:13:56;8.27;;;4.63;;
4758;SDS011;2393;50.560;12.636;2023-02-28T13:16:26;10.60;;;5.93;;
4758;SDS011;2393;50.560;12.636;2023-02-28T13:19:07;12.45;;;6.82;;
4758;SDS011;2393;50.560;12.636;2023-02-28T13:21:41;6.13;;;5.53;;
4758;SDS011;2393;50.560;12.636;2023-02-28T13:24:12;10.18;;;6.20;;
4758;SDS011;2393;50.560;12.636;2023-02-28T13:33:17;7.05;;;4.90;;
4758;SDS011;2393;50.560;12.636;2023-02-28T13:36:00;12.07;;;7.07;;
4758;SDS011;2393;50.560;12.636;2023-02-28T13:38:36;10.57;;;4.82;;
4758;SDS011;2393;50.560;12.636;2023-02-28T13:44:10;9.02;;;5.25;;
4758;SDS011;2393;50.560;12.636;2023-02-28T13:49:47;10.75;;;6.80;;
4758;SDS011;2393;50.560;12.636;2023-02-28T13:52:17;12.55;;;6.22;;
4758;SDS011;2393;50.560;12.636;2023-02-28T13:58:01;7.43;;;5.60;;
4758;SDS011;2393;50.560;12.636;2023-02-28T14:00:44;8.60;;;6.40;;
4758;SDS011;2393;50.560;12.636;2023-02-28T14:03:38;13.27;;;7.35;;
4758;SDS011;2393;50.560;12.636;2023-02-28T14:06:22;7.88;;;5.65;;
4758;SDS011;2393;50.560;12.636;2023-02-28T14:08:55;9.55;;;5.32;;
4758;SDS011;2393;50.560;12.636;2023-02-28T14:11:28;15.63;;;5.95;;
4758;SDS011;2393;50.560;12.636;2023-02-28T14:13:58;11.88;;;6.93;;
4758;SDS011;2393;50.560;12.636;2023-02-28T14:16:34;11.98;;;6.10;;
4758;SDS011;2393;50.560;12.636;2023-02-28T14:19:09;20.45;;;9.52;;
4758;SDS011;2393;50.560;12.636;2023-02-28T14:21:43;12.25;;;6.80;;
4758;SDS011;2393;50.560;12.636;2023-02-28T14:24:26;15.38;;;8.30;;
4758;SDS011;2393;50.560;12.636;2023-02-28T14:27:24;13.30;;;8.52;;
4758;SDS011;2393;50.560;12.636;2023-02-28T14:30:12;9.30;;;6.30;;
4758;SDS011;2393;50.560;12.636;2023-02-28T14:32:59;12.05;;;5.57;;
4758;SDS011;2393;50.560;12.636;2023-02-28T14:35:39;10.77;;;6.13;;
4758;SDS011;2393;50.560;12.636;2023-02-28T14:38:17;13.88;;;7.25;;
4758;SDS011;2393;50.560;12.636;2023-02-28T14:40:49;17.15;;;6.78;;
4758;SDS011;2393;50.560;12.636;2023-02-28T14:43:20;7.10;;;5.50;;
4758;SDS011;2393;50.560;12.636;2023-02-28T14:45:50;10.15;;;6.10;;
4758;SDS011;2393;50.560;12.636;2023-02-28T14:48:23;8.95;;;6.18;;
4758;SDS011;2393;50.560;12.636;2023-02-28T14:50:54;10.00;;;6.90;;
4758;SDS011;2393;50.560;12.636;2023-02-28T14:53:25;10.60;;;6.88;;
4758;SDS011;2393;50.560;12.636;2023-02-28T14:55:55;11.00;;;6.20;;
4758;SDS011;2393;50.560;12.636;2023-02-28T14:58:25;12.20;;;6.90;;
4758;SDS011;2393;50.560;12.636;2023-02-28T15:00:55;14.30;;;7.63;;
4758;SDS011;2393;50.560;12.636;2023-02-28T15:03:29;17.33;;;7.38;;
4758;SDS011;2393;50.560;12.636;2023-02-28T15:05:59;9.13;;;5.93;;
4758;SDS011;2393;50.560;12.636;2023-02-28T15:08:28;19.85;;;6.88;;
4758;SDS011;2393;50.560;12.636;2023-02-28T15:11:02;12.98;;;6.30;;
4758;SDS011;2393;50.560;12.636;2023-02-28T15:13:34;10.18;;;5.60;;
4758;SDS011;2393;50.560;12.636;2023-02-28T15:16:08;12.38;;;7.13;;
4758;SDS011;2393;50.560;12.636;2023-02-28T15:18:43;15.00;;;6.75;;
4758;SDS011;2393;50.560;12.636;2023-02-28T15:21:15;11.40;;;7.07;;
4758;SDS011;2393;50.560;12.636;2023-02-28T15:23:46;8.80;;;6.53;;
4758;SDS011;2393;50.560;12.636;2023-02-28T15:26:19;19.33;;;7.95;;
4758;SDS011;2393;50.560;12.636;2023-02-28T15:28:49;14.10;;;7.88;;
4758;SDS011;2393;50.560;12.636;2023-02-28T15:31:23;14.52;;;7.63;;
4758;SDS011;2393;50.560;12.636;2023-02-28T15:33:56;11.38;;;7.22;;
4758;SDS011;2393;50.560;12.636;2023-02-28T15:36:25;12.30;;;7.30;;
4758;SDS011;2393;50.560;12.636;2023-02-28T15:38:56;18.38;;;7.88;;
4758;SDS011;2393;50.560;12.636;2023-02-28T15:41:40;10.80;;;6.65;;
4758;SDS011;2393;50.560;12.636;2023-02-28T15:44:17;18.92;;;8.52;;
4758;SDS011;2393;50.560;12.636;2023-02-28T15:46:54;29.45;;;11.23;;
4758;SDS011;2393;50.560;12.636;2023-02-28T15:49:27;22.98;;;7.60;;
4758;SDS011;2393;50.560;12.636;2023-02-28T15:52:02;12.88;;;7.13;;
4758;SDS011;2393;50.560;12.636;2023-02-28T15:54:32;11.27;;;6.53;;
4758;SDS011;2393;50.560;12.636;2023-02-28T15:57:03;14.75;;;8.05;;
4758;SDS011;2393;50.560;12.636;2023-02-28T15:59:35;12.40;;;7.13;;
4758;SDS011;2393;50.560;12.636;2023-02-28T16:02:14;13.77;;;7.35;;
4758;SDS011;2393;50.560;12.636;2023-02-28T16:04:56;17.35;;;8.57;;
4758;SDS011;2393;50.560;12.636;2023-02-28T16:07:26;15.02;;;7.65;;
4758;SDS011;2393;50.560;12.636;2023-02-28T16:09:57;15.75;;;7.53;;
4758;SDS011;2393;50.560;12.636;2023-02-28T16:12:26;16.27;;;7.90;;
4758;SDS011;2393;50.560;12.636;2023-02-28T16:14:55;11.02;;;7.13;;
4758;SDS011;2393;50.560;12.636;2023-02-28T16:17:30;18.27;;;9.23;;
4758;SDS011;2393;50.560;12.636;2023-02-28T16:20:11;16.55;;;8.63;;
4758;SDS011;2393;50.560;12.636;2023-02-28T16:22:41;19.90;;;8.90;;
4758;SDS011;2393;50.560;12.636;2023-02-28T16:25:10;10.45;;;7.10;;
4758;SDS011;2393;50.560;12.636;2023-02-28T16:27:40;15.77;;;7.25;;
4758;SDS011;2393;50.560;12.636;2023-02-28T16:30:16;11.77;;;7.97;;
4758;SDS011;2393;50.560;12.636;2023-02-28T16:32:47;15.25;;;8.20;;
4758;SDS011;2393;50.560;12.636;2023-02-28T16:35:19;15.07;;;8.18;;
4758;SDS011;2393;50.560;12.636;2023-02-28T16:37:49;17.13;;;8.40;;
4758;SDS011;2393;50.560;12.636;2023-02-28T16:40:19;20.65;;;8.70;;